Flight Track Log - Related Links

Times and Time Zones

All times are in EDT time to prevent confusion due to time zone crossing. See the VRD932 flight status page for this flight to view local times or setup timezone preferences in your user account.

Time Position Orientation Groundspeed Altitude Reporting Facility
EDT Latitude Longitude Course Direction KTS MPH feet Rate Location/Type
Thu 08:08:57 PM 37.6260 -122.3870 298° West 137 158 900  Level FlightAware ADS-B
Thu 08:09:22 PM 37.6330 -122.4060 295° West 151 174 1,800 1,636 Climbing FlightAware ADS-B
Thu 08:09:52 PM 37.6450 -122.4340 298° West 202 232 2,400 1,636 Climbing FlightAware ADS-B
Thu 08:10:17 PM 37.6560 -122.4620 296° West 234 269 3,300 2,836 Climbing FlightAware ADS-B
Thu 08:10:47 PM 37.6680 -122.5000 292° West 244 281 5,000 3,333 Climbing FlightAware ADS-B
Thu 08:11:02 PM 37.6620 -122.5230 252° West 256 295 5,800 3,120 Climbing FlightAware ADS-B
Thu 08:11:12 PM 37.6540 -122.5340 227° Southwest 267 307 6,300 2,640 Climbing FlightAware ADS-B
Thu 08:11:27 PM 37.6410 -122.5440 211° Southwest 280 322 6,900 2,880 Climbing FlightAware ADS-B
Thu 08:11:37 PM 37.6270 -122.5470 190° South 289 333 7,500 3,600 Climbing FlightAware ADS-B
Thu 08:11:57 PM 37.6000 -122.5380 165° South 297 342 8,700 3,600 Climbing FlightAware ADS-B
Thu 08:12:12 PM 37.5830 -122.5200 140° Southeast 303 349 9,600 2,618 Climbing FlightAware ADS-B
Thu 08:12:52 PM 37.5420 -122.4680 135° Southeast 334 384 11,100 2,329 Climbing FlightAware ADS-B
Thu 08:13:37 PM 37.4920 -122.4030 134° Southeast 361 415 12,900 2,625 Climbing FlightAware ADS-B
Thu 08:14:12 PM 37.4520 -122.3470 132° Southeast 368 423 14,600 2,550 Climbing FlightAware ADS-B
Thu 08:14:57 PM 37.3990 -122.2740 132° Southeast 387 445 16,300 2,400 Climbing FlightAware ADS-B
Thu 08:15:42 PM 37.3410 -122.1960 133° Southeast 400 460 18,200 2,471 Climbing FlightAware ADS-B
Thu 08:16:22 PM 37.2910 -122.1290 133° Southeast 411 473 19,800 2,329 Climbing FlightAware ADS-B
Thu 08:17:07 PM 37.2340 -122.0510 133° Southeast 418 481 21,500 2,400 Climbing FlightAware ADS-B
Thu 08:17:47 PM 37.1810 -121.9800 133° Southeast 416 479 23,200 1,950 Climbing FlightAware ADS-B
Thu 08:18:27 PM 37.1280 -121.9090 133° Southeast 434 499 24,100 1,624 Climbing FlightAware ADS-B
Thu 08:19:12 PM 37.0640 -121.8230 133° Southeast 442 509 25,500 1,906 Climbing FlightAware ADS-B
Thu 08:19:52 PM 37.0080 -121.7480 133° Southeast 445 512 26,800 1,694 Climbing FlightAware ADS-B
Thu 08:20:37 PM 36.9450 -121.6640 133° Southeast 453 521 27,900 1,553 Climbing FlightAware ADS-B
Thu 08:21:17 PM 36.8890 -121.5890 133° Southeast 457 526 29,000 1,350 Climbing FlightAware ADS-B
Thu 08:21:57 PM 36.8360 -121.5190 133° Southeast 463 533 29,700 1,350 Climbing FlightAware ADS-B
Thu 08:22:37 PM 36.7700 -121.4320 133° Southeast 466 536 30,800 1,976 Climbing FlightAware ADS-B
Thu 08:23:22 PM 36.7030 -121.3420 133° Southeast 452 520 32,500 2,000 Climbing FlightAware ADS-B
Thu 08:24:07 PM 36.6410 -121.2610 134° Southeast 443 510 33,800 1,725 Climbing FlightAware ADS-B
Thu 08:24:42 PM 36.5900 -121.1950 134° Southeast 437 503 34,800 900 Climbing FlightAware ADS-B
Thu 08:25:27 PM 36.5300 -121.1160 133° Southeast 452 520 35,000 133 Climbing FlightAware ADS-B
Thu 08:26:12 PM 36.4620 -121.0270 134° Southeast 454 522 35,000  Level FlightAware ADS-B
Thu 08:26:52 PM 36.4060 -120.9540 134° Southeast 450 518 35,000  Level FlightAware ADS-B
Thu 08:27:37 PM 36.3420 -120.8690 133° Southeast 450 518 35,000  Level FlightAware ADS-B
Thu 08:28:17 PM 36.2850 -120.7960 134° Southeast 451 519 35,000  Level FlightAware ADS-B
Thu 08:28:57 PM 36.2250 -120.7180 134° Southeast 452 520 35,000  Level FlightAware ADS-B
Thu 08:29:42 PM 36.1600 -120.6330 133° Southeast 451 519 35,000  Level FlightAware ADS-B
Thu 08:30:22 PM 36.1030 -120.5610 134° Southeast 451 519 35,000  Level FlightAware ADS-B
Thu 08:31:07 PM 36.0440 -120.4850 134° Southeast 451 519 35,000  Level FlightAware ADS-B
Thu 08:31:47 PM 35.9800 -120.4020 134° Southeast 451 519 35,000  Level FlightAware ADS-B
Thu 08:32:22 PM 35.9370 -120.3470 134° Southeast 451 519 35,000  Level FlightAware ADS-B
Thu 08:33:12 PM 35.8560 -120.2430 134° Southeast 450 518 35,000  Level FlightAware ADS-B
Thu 08:33:52 PM 35.8010 -120.1740 134° Southeast 451 519 35,000  Level FlightAware ADS-B
Thu 08:34:37 PM 35.7330 -120.0880 134° Southeast 454 522 35,000  Level FlightAware ADS-B
Thu 08:35:17 PM 35.6750 -120.0140 134° Southeast 456 525 35,000  Level FlightAware ADS-B
Thu 08:35:57 PM 35.6140 -119.9490 139° Southeast 444 511 35,000  Level FlightAware ADS-B
Thu 08:36:42 PM 35.5350 -119.8820 145° Southeast 444 511 35,000  Level FlightAware ADS-B
Thu 08:37:22 PM 35.4670 -119.8230 145° Southeast 443 510 35,000  Level FlightAware ADS-B
Thu 08:38:07 PM 35.3920 -119.7580 145° Southeast 442 509 35,000  Level FlightAware ADS-B
Thu 08:38:47 PM 35.3260 -119.7020 145° Southeast 443 510 35,000  Level FlightAware ADS-B
Thu 08:39:27 PM 35.2590 -119.6440 145° Southeast 445 512 35,000  Level FlightAware ADS-B
Thu 08:40:12 PM 35.1860 -119.5810 145° Southeast 447 514 35,000 -675 Level FlightAware ADS-B
Thu 08:40:47 PM 35.1280 -119.5320 145° Southeast 447 514 34,100 -675 Descending FlightAware ADS-B
Thu 08:41:32 PM 35.0600 -119.4720 144° Southeast 447 514 34,100  Level FlightAware ADS-B
Thu 08:42:12 PM 35.0030 -119.4210 144° Southeast 447 514 34,100 -3,900 Level FlightAware ADS-B
Thu 08:42:52 PM 34.9080 -119.3440 146° Southeast 466 536 28,900 -4,933 Descending FlightAware ADS-B
Thu 08:43:42 PM 34.8190 -119.2690 145° Southeast 453 521 26,700 -2,533 Descending FlightAware ADS-B
Thu 08:44:22 PM 34.7530 -119.2130 145° Southeast 441 507 25,100 -2,400 Descending FlightAware ADS-B
Thu 08:45:02 PM 34.6860 -119.1570 145° Southeast 425 489 23,500 -2,329 Descending FlightAware ADS-B
Thu 08:45:47 PM 34.6160 -119.0970 145° Southeast 416 479 21,800 -2,040 Descending FlightAware ADS-B
Thu 08:46:42 PM 34.5450 -119.0380 146° Southeast 407 468 20,100 -1,958 Descending FlightAware ADS-B
Thu 08:47:22 PM 34.4860 -118.9890 146° Southeast 401 461 18,700 -2,320 Descending FlightAware ADS-B
Thu 08:47:57 PM 34.4690 -118.9750 146° Southeast 398 458 17,200 -2,329 Descending FlightAware ADS-B
Thu 08:48:47 PM 34.3380 -118.8740 148° Southeast 362 417 15,400 -2,021 Descending FlightAware ADS-B
Thu 08:49:32 PM 34.2680 -118.8490 164° South 348 400 14,000 -1,760 Descending FlightAware ADS-B
Thu 08:50:02 PM 34.2230 -118.8320 163° South 340 391 13,200 -1,271 Descending FlightAware ADS-B
Thu 08:50:57 PM 34.1440 -118.8030 163° South 314 361 12,200 -1,326 Descending FlightAware ADS-B
Thu 08:51:37 PM 34.0880 -118.7820 163° South 310 357 11,100 -1,629 Descending FlightAware ADS-B
Thu 08:52:07 PM 34.0510 -118.7610 155° Southeast 320 368 10,300 -1,200 Descending FlightAware ADS-B
Thu 08:52:32 PM 34.0360 -118.7300 120° Southeast 324 373 10,000 -450 Descending FlightAware ADS-B
Thu 08:52:47 PM 34.0340 -118.7060 96° East 324 373 10,000  Level FlightAware ADS-B
Thu 08:53:27 PM 34.0280 -118.6320 96° East 318 366 10,000 -771 Level FlightAware ADS-B
Thu 08:53:57 PM 34.0230 -118.5780 96° East 317 365 9,100 -1,200 Descending FlightAware ADS-B
Thu 08:54:27 PM 34.0180 -118.5300 97° East 302 348 8,800 -655 Descending FlightAware ADS-B
Thu 08:54:52 PM 34.0140 -118.4880 97° East 283 326 8,500 -655 Descending FlightAware ADS-B
Thu 08:55:22 PM 34.0090 -118.4440 98° East 267 307 8,200 -873 Descending FlightAware ADS-B
Thu 08:55:47 PM 34.0110 -118.4000 87° East 259 298 7,700 -1,200 Descending FlightAware ADS-B
Thu 08:56:12 PM 34.0140 -118.3650 84° East 254 292 7,200 -1,309 Descending FlightAware ADS-B
Thu 08:56:42 PM 34.0170 -118.3220 85° East 246 283 6,500 -1,600 Descending FlightAware ADS-B
Thu 08:57:12 PM 34.0210 -118.2800 83° East 242 278 5,600 -1,500 Descending FlightAware ADS-B
Thu 08:57:42 PM 34.0240 -118.2450 84° East 240 276 5,000 -1,200 Descending FlightAware ADS-B
Thu 08:58:07 PM 34.0290 -118.2050 81° East 233 268 4,500 -873 Descending FlightAware ADS-B
Thu 08:58:37 PM 34.0320 -118.1690 84° East 218 251 4,200 -545 Descending FlightAware ADS-B
Thu 08:59:02 PM 34.0350 -118.1400 83° East 202 232 4,000 -764 Descending FlightAware ADS-B
Thu 08:59:32 PM 34.0270 -118.1120 109° East 191 220 3,500 -1,067 Descending FlightAware ADS-B
Thu 08:59:47 PM 34.0130 -118.1080 167° South 186 214 3,200 -1,000 Descending FlightAware ADS-B
Thu 09:00:02 PM 34.0030 -118.1130 203° Southwest 186 214 3,000 -900 Descending FlightAware ADS-B
Thu 09:00:27 PM 33.9880 -118.1350 231° Southwest 191 220 2,600 -436 Descending FlightAware ADS-B
Thu 09:00:57 PM 33.9770 -118.1640 245° Southwest 195 224 2,600 109 Level FlightAware ADS-B
Thu 09:01:22 PM 33.9740 -118.1860 261° West 183 211 2,700  Climbing FlightAware ADS-B
Thu 09:01:47 PM 33.9710 -118.2140 263° West 180 207 2,600 -100 Descending FlightAware ADS-B
Thu 09:02:22 PM 33.9680 -118.2470 264° West 178 205 2,600 -218 Level FlightAware ADS-B
Thu 09:02:42 PM 33.9660 -118.2650 262° West 177 204 2,400 -764 Descending FlightAware ADS-B
Thu 09:03:17 PM 33.9630 -118.2930 263° West 171 197 1,900 -831 Descending FlightAware ADS-B
Thu 09:03:47 PM 33.9600 -118.3200 262° West 146 168 1,500 -764 Descending FlightAware ADS-B
Thu 09:04:12 PM 33.9580 -118.3400 263° West 126 145 1,200 -720 Descending FlightAware ADS-B
Thu 09:04:37 PM 33.9570 -118.3550 265° West 124 143 900 -655 Descending FlightAware ADS-B
Thu 09:05:07 PM 33.9550 -118.3740 263° West 123 142 600 -327 Descending FlightAware ADS-B
Thu 09:05:32 PM 33.9530 -118.3900 261° West 123 142 600 -375 Level FlightAware ADS-B
Thu 09:06:11 PM 33.9503 -118.4200 261° West 129 148 200 -615 Descending Los Angeles Center
Thu 09:08:00 PM 33.9425 -118.4081 72° East  Level Estimated

Login

Don't have an account? Register now (free) for customized features, flight alerts, and more!